createdAt,value
2022-08-17T00:00:57.777Z,81.80
2022-08-17T00:02:01.449Z,81.80
2022-08-17T00:03:28.225Z,81.60
2022-08-17T00:04:32.158Z,81.50
2022-08-17T00:05:40.809Z,81.30
2022-08-17T00:06:45.245Z,81.10
2022-08-17T00:07:48.028Z,81.10
2022-08-17T00:09:18.660Z,81.10
2022-08-17T00:10:21.392Z,81.00
2022-08-17T00:11:28.741Z,81.00
2022-08-17T00:12:40.695Z,80.90
2022-08-17T00:13:56.011Z,80.70
2022-08-17T00:14:58.227Z,80.70
2022-08-17T00:16:04.598Z,80.60
2022-08-17T00:17:07.120Z,80.50
2022-08-17T00:18:58.152Z,80.50
2022-08-17T00:19:32.681Z,80.40
2022-08-17T00:20:35.074Z,80.40
2022-08-17T00:22:31.863Z,80.30
2022-08-17T00:23:10.815Z,80.40
2022-08-17T00:24:14.877Z,80.20
2022-08-17T00:25:19.980Z,80.20
2022-08-17T00:26:35.836Z,80.20
2022-08-17T00:27:44.936Z,80.10
2022-08-17T00:28:47.698Z,80.20
2022-08-17T00:29:49.628Z,80.30
2022-08-17T00:30:53.540Z,80.30
2022-08-17T00:31:56.070Z,80.50
2022-08-17T00:33:14.778Z,80.30
2022-08-17T00:34:20.053Z,80.20
2022-08-17T00:35:23.737Z,80.20
2022-08-17T00:36:25.569Z,80.20
2022-08-17T00:37:27.662Z,80.20
2022-08-17T00:38:30.006Z,80.20
2022-08-17T00:39:32.820Z,80.10
2022-08-17T00:40:40.059Z,80.10
2022-08-17T00:41:46.974Z,80.10
2022-08-17T00:42:49.833Z,80.10
2022-08-17T00:43:58.942Z,80.10
2022-08-17T00:45:00.905Z,80.20
2022-08-17T00:46:10.283Z,80.20
2022-08-17T00:47:12.420Z,80.30
2022-08-17T00:48:29.517Z,80.40
2022-08-17T00:49:32.195Z,80.50
2022-08-17T00:50:34.974Z,80.60
2022-08-17T00:52:04.398Z,80.60
2022-08-17T00:53:13.788Z,80.40
2022-08-17T00:54:22.119Z,80.50
2022-08-17T00:55:25.335Z,80.60
2022-08-17T00:56:33.779Z,80.80
2022-08-17T00:57:40.022Z,80.80
2022-08-17T00:58:42.146Z,80.80
2022-08-17T01:00:01.798Z,80.70
2022-08-17T01:01:06.607Z,80.70
2022-08-17T01:02:12.476Z,80.90
2022-08-17T01:03:19.665Z,80.80
2022-08-17T01:04:22.428Z,80.80
2022-08-17T01:05:28.454Z,80.80
2022-08-17T01:06:32.486Z,80.90
2022-08-17T01:07:34.877Z,80.90
2022-08-17T01:08:40.703Z,80.90
2022-08-17T01:09:44.080Z,81.00
2022-08-17T01:10:59.416Z,81.20
2022-08-17T01:12:08.570Z,81.00
2022-08-17T01:13:12.825Z,80.80
2022-08-17T01:14:14.648Z,80.90
2022-08-17T01:15:16.942Z,80.90
2022-08-17T01:16:32.296Z,80.90
2022-08-17T01:17:34.554Z,80.80
2022-08-17T01:18:37.911Z,80.80
2022-08-17T01:19:42.497Z,80.90
2022-08-17T01:20:49.503Z,80.80
2022-08-17T01:21:58.585Z,80.70
2022-08-17T01:23:01.946Z,80.60
2022-08-17T01:24:04.208Z,80.50
2022-08-17T01:25:08.915Z,80.50
2022-08-17T01:26:10.724Z,79.90
2022-08-17T01:27:14.290Z,80.10
2022-08-17T01:28:33.214Z,79.80
2022-08-17T01:29:41.091Z,79.80
2022-08-17T01:30:57.851Z,80.00
2022-08-17T01:32:04.815Z,80.30
2022-08-17T01:33:06.633Z,80.40
2022-08-17T01:34:11.184Z,80.60
2022-08-17T01:35:14.065Z,80.80
2022-08-17T01:36:16.042Z,81.00
2022-08-17T01:37:20.906Z,80.80
2022-08-17T01:38:26.500Z,80.90
2022-08-17T01:39:38.363Z,80.90
2022-08-17T01:40:46.620Z,81.20
2022-08-17T01:41:55.410Z,81.30
2022-08-17T01:43:03.535Z,81.30
2022-08-17T01:44:07.787Z,81.40
2022-08-17T01:45:15.150Z,81.50
2022-08-17T01:46:21.873Z,81.40
2022-08-17T01:47:24.243Z,81.50
2022-08-17T01:48:32.307Z,81.50
2022-08-17T01:49:34.504Z,81.50
2022-08-17T01:50:38.025Z,81.70
2022-08-17T01:51:40.275Z,81.70
2022-08-17T01:52:45.308Z,81.70
2022-08-17T01:53:54.004Z,81.70
2022-08-17T01:54:56.475Z,81.80
2022-08-17T01:56:02.643Z,81.80
2022-08-17T01:57:04.958Z,81.90
2022-08-17T01:58:09.703Z,81.90
2022-08-17T01:59:12.462Z,82.90
2022-08-17T02:00:15.230Z,83.90
2022-08-17T02:01:20.047Z,84.80
2022-08-17T02:02:31.404Z,85.20
2022-08-17T02:03:35.480Z,85.80
2022-08-17T02:04:37.336Z,86.00
2022-08-17T02:05:40.170Z,85.70
2022-08-17T02:06:53.787Z,86.40
2022-08-17T02:08:00.267Z,87.50
2022-08-17T02:09:03.989Z,87.80
2022-08-17T02:10:20.174Z,88.40
2022-08-17T02:11:22.454Z,88.90
2022-08-17T02:12:37.966Z,88.80
2022-08-17T02:13:42.109Z,89.00
2022-08-17T02:14:44.103Z,89.70
2022-08-17T02:15:46.117Z,89.80
2022-08-17T02:16:47.933Z,90.00
2022-08-17T02:17:49.719Z,90.30
2022-08-17T02:18:56.723Z,90.30
2022-08-17T02:19:58.686Z,90.50
2022-08-17T02:21:00.939Z,90.60
2022-08-17T02:22:02.983Z,90.60
2022-08-17T02:23:08.999Z,90.90
2022-08-17T02:24:15.666Z,90.90
2022-08-17T02:25:20.445Z,91.10
2022-08-17T02:26:26.758Z,91.10
2022-08-17T02:27:28.995Z,91.10
2022-08-17T02:28:31.203Z,91.00
2022-08-17T02:29:33.297Z,91.10
2022-08-17T02:31:02.202Z,91.30
2022-08-17T02:31:58.591Z,91.50
2022-08-17T02:33:04.231Z,91.70
2022-08-17T02:34:08.299Z,91.70
2022-08-17T02:35:10.472Z,91.90
2022-08-17T02:36:13.911Z,92.10
2022-08-17T02:37:18.918Z,92.40
2022-08-17T02:38:20.718Z,92.60
2022-08-17T02:39:22.626Z,92.70
2022-08-17T02:40:36.371Z,93.40
2022-08-17T02:41:39.894Z,93.00
2022-08-17T02:42:45.038Z,93.10
2022-08-17T02:43:46.882Z,93.00
2022-08-17T02:44:48.701Z,93.20
2022-08-17T02:45:50.701Z,93.20
2022-08-17T02:46:53.369Z,93.10
2022-08-17T02:47:55.702Z,93.20
2022-08-17T02:48:57.920Z,93.30
2022-08-17T02:49:59.738Z,93.40
2022-08-17T02:51:01.611Z,93.50
2022-08-17T02:52:06.354Z,93.70
2022-08-17T02:53:08.855Z,93.70
2022-08-17T02:54:41.083Z,93.70
2022-08-17T02:55:40.202Z,93.80
2022-08-17T02:56:41.985Z,93.90
2022-08-17T02:57:44.631Z,93.90
2022-08-17T02:58:46.469Z,94.10
2022-08-17T02:59:49.116Z,94.10
2022-08-17T03:00:51.384Z,94.10
2022-08-17T03:01:53.696Z,94.20
2022-08-17T03:02:57.560Z,94.20
2022-08-17T03:04:00.102Z,94.40
2022-08-17T03:05:06.757Z,94.30
2022-08-17T03:06:09.135Z,94.40
2022-08-17T03:07:11.818Z,94.90
2022-08-17T03:08:14.517Z,94.50
2022-08-17T03:09:16.888Z,94.60
2022-08-17T03:10:19.680Z,95.00
2022-08-17T03:11:22.003Z,94.60
2022-08-17T03:12:23.984Z,94.50
2022-08-17T03:13:27.541Z,94.60
2022-08-17T03:14:29.370Z,94.60
2022-08-17T03:15:34.472Z,94.50
2022-08-17T03:16:36.509Z,95.00
2022-08-17T03:17:38.333Z,94.50
2022-08-17T03:18:40.377Z,94.50
2022-08-17T03:19:43.418Z,94.40
2022-08-17T03:20:45.295Z,94.40
2022-08-17T03:21:47.178Z,94.40
2022-08-17T03:23:01.826Z,94.30
2022-08-17T03:24:08.899Z,94.10
2022-08-17T03:25:14.239Z,94.20
2022-08-17T03:26:21.341Z,94.40
2022-08-17T03:27:23.259Z,94.30
2022-08-17T03:28:26.344Z,94.30
2022-08-17T03:29:28.159Z,94.50
2022-08-17T03:30:30.761Z,94.50
2022-08-17T03:31:32.797Z,94.60
2022-08-17T03:32:42.045Z,94.60
2022-08-17T03:33:43.959Z,94.70
2022-08-17T03:34:46.042Z,95.00
2022-08-17T03:35:48.063Z,94.60
2022-08-17T03:36:50.253Z,94.70
2022-08-17T03:38:00.829Z,94.70
2022-08-17T03:39:03.114Z,94.80
2022-08-17T03:40:07.974Z,94.70
2022-08-17T03:41:13.966Z,94.70
2022-08-17T03:42:32.314Z,94.50
2022-08-17T03:43:34.848Z,94.40
2022-08-17T03:44:36.765Z,94.30
2022-08-17T03:45:57.922Z,94.40
2022-08-17T03:47:18.570Z,94.30
2022-08-17T03:48:39.669Z,94.30
2022-08-17T03:50:00.072Z,94.50
2022-08-17T03:51:20.733Z,94.60
2022-08-17T03:52:41.115Z,94.80
2022-08-17T03:54:07.737Z,94.80
2022-08-17T03:55:35.891Z,95.00
2022-08-17T03:56:44.275Z,94.90
2022-08-17T03:57:46.071Z,94.80
2022-08-17T03:58:48.730Z,94.90
2022-08-17T03:59:52.165Z,95.00
2022-08-17T04:00:55.417Z,95.00
2022-08-17T04:02:01.426Z,94.90
2022-08-17T04:03:04.046Z,94.90
2022-08-17T04:04:06.645Z,94.80
2022-08-17T04:05:09.490Z,94.80
2022-08-17T04:06:11.426Z,94.80
2022-08-17T04:07:13.282Z,94.90
2022-08-17T04:08:15.187Z,94.90
2022-08-17T04:09:17.206Z,94.90
2022-08-17T04:10:19.841Z,94.80
2022-08-17T04:11:23.715Z,94.90
2022-08-17T04:12:26.767Z,95.00
2022-08-17T04:13:31.784Z,95.20
2022-08-17T04:14:51.542Z,95.30
2022-08-17T04:15:56.217Z,95.20
2022-08-17T04:16:59.105Z,95.10
2022-08-17T04:18:00.963Z,94.90
2022-08-17T04:19:04.148Z,94.80
2022-08-17T04:20:06.652Z,95.40
2022-08-17T04:21:11.190Z,94.80
2022-08-17T04:22:31.818Z,94.80
2022-08-17T04:23:36.742Z,94.80
2022-08-17T04:24:38.572Z,94.90
2022-08-17T04:25:44.724Z,94.80
2022-08-17T04:26:54.250Z,94.80
2022-08-17T04:27:57.195Z,94.90
2022-08-17T04:28:59.150Z,95.00
2022-08-17T04:30:01.581Z,95.40
2022-08-17T04:31:03.689Z,95.00
2022-08-17T04:32:05.891Z,95.00
2022-08-17T04:33:17.135Z,95.10
2022-08-17T04:34:19.923Z,95.50
2022-08-17T04:35:31.599Z,95.10
2022-08-17T04:36:34.340Z,95.00
2022-08-17T04:37:36.433Z,95.00
2022-08-17T04:38:40.842Z,95.00
2022-08-17T04:40:04.391Z,95.00
2022-08-17T04:41:25.448Z,95.00
2022-08-17T04:42:27.334Z,94.90
2022-08-17T04:43:32.054Z,94.80
2022-08-17T04:44:37.559Z,94.90
2022-08-17T04:45:55.239Z,94.80
2022-08-17T04:46:58.587Z,94.80
2022-08-17T04:48:01.118Z,94.80
2022-08-17T04:49:09.529Z,94.90
2022-08-17T04:50:11.376Z,94.90
2022-08-17T04:51:22.028Z,95.00
2022-08-17T04:52:29.835Z,95.00
2022-08-17T04:53:53.846Z,95.10
2022-08-17T04:54:56.388Z,95.10
2022-08-17T04:55:59.106Z,95.10
2022-08-17T04:57:01.172Z,95.10
2022-08-17T04:58:03.668Z,95.10
2022-08-17T04:59:10.818Z,95.10
2022-08-17T05:00:13.257Z,95.00
2022-08-17T05:01:16.032Z,95.00
2022-08-17T05:02:17.905Z,95.10
2022-08-17T05:03:20.432Z,95.10
2022-08-17T05:04:34.009Z,95.00
2022-08-17T05:05:43.450Z,95.00
2022-08-17T05:06:46.075Z,94.90
2022-08-17T05:07:49.210Z,94.90
2022-08-17T05:08:51.164Z,95.00
2022-08-17T05:09:53.278Z,95.00
2022-08-17T05:10:55.404Z,95.00
2022-08-17T05:12:04.039Z,95.00
2022-08-17T05:13:11.640Z,95.10
2022-08-17T05:14:14.421Z,95.00
2022-08-17T05:15:16.350Z,95.00
2022-08-17T05:16:19.918Z,94.90
2022-08-17T05:17:21.755Z,95.00
2022-08-17T05:18:24.813Z,94.90
2022-08-17T05:19:26.769Z,95.00
2022-08-17T05:20:29.013Z,95.00
2022-08-17T05:21:32.057Z,95.10
2022-08-17T05:22:35.365Z,95.10
2022-08-17T05:23:41.570Z,95.00
2022-08-17T05:24:53.844Z,95.10
2022-08-17T05:25:58.312Z,95.20
2022-08-17T05:27:06.301Z,95.20
2022-08-17T05:28:10.816Z,95.30
2022-08-17T05:29:12.969Z,95.30
2022-08-17T05:30:16.216Z,95.20
2022-08-17T05:31:18.208Z,95.30
2022-08-17T05:32:39.283Z,95.30
2022-08-17T05:33:46.200Z,95.30
2022-08-17T05:34:48.555Z,95.30
2022-08-17T05:35:54.093Z,95.30
2022-08-17T05:36:56.111Z,95.30
2022-08-17T05:37:58.655Z,95.30
2022-08-17T05:39:00.719Z,95.30
2022-08-17T05:40:02.662Z,95.30
2022-08-17T05:41:06.434Z,95.20
2022-08-17T05:42:09.513Z,95.10
2022-08-17T05:43:23.372Z,95.10
2022-08-17T05:44:25.181Z,94.90
2022-08-17T05:45:54.416Z,95.00
2022-08-17T05:46:52.364Z,95.00
2022-08-17T05:47:55.870Z,94.80
2022-08-17T05:49:04.412Z,94.80
2022-08-17T05:50:09.455Z,94.80
2022-08-17T05:51:26.499Z,94.80
2022-08-17T05:52:33.903Z,94.90
2022-08-17T05:53:56.679Z,94.80
2022-08-17T05:55:17.337Z,94.80
2022-08-17T05:56:43.810Z,94.80
2022-08-17T05:58:05.598Z,94.70
2022-08-17T05:59:37.831Z,94.70
2022-08-17T06:00:58.363Z,94.70
2022-08-17T06:02:15.631Z,94.80
2022-08-17T06:03:42.080Z,94.80
2022-08-17T06:05:08.827Z,94.70
2022-08-17T06:06:40.451Z,94.70
2022-08-17T06:08:17.569Z,94.70
2022-08-17T06:09:33.852Z,94.70
2022-08-17T06:10:56.793Z,94.80
2022-08-17T06:12:18.945Z,94.80
2022-08-17T06:13:59.624Z,94.40
2022-08-17T06:15:10.882Z,94.80
2022-08-17T06:16:31.161Z,94.50
2022-08-17T06:17:37.484Z,94.50
2022-08-17T06:18:47.855Z,94.50
2022-08-17T06:20:13.024Z,94.40
2022-08-17T06:21:18.658Z,94.50
2022-08-17T06:22:29.701Z,94.40
2022-08-17T06:23:39.098Z,94.30
2022-08-17T06:25:12.837Z,94.40
2022-08-17T06:26:19.128Z,94.40
2022-08-17T06:27:53.542Z,94.60
2022-08-17T06:29:08.229Z,94.50
2022-08-17T06:30:25.639Z,94.60
2022-08-17T06:31:32.653Z,94.60
2022-08-17T06:32:38.771Z,94.50
2022-08-17T06:33:40.887Z,94.50
2022-08-17T06:34:45.049Z,94.40
2022-08-17T06:36:02.837Z,94.50
2022-08-17T06:37:43.474Z,94.50
2022-08-17T06:39:04.565Z,94.50
2022-08-17T06:40:29.932Z,94.50
2022-08-17T06:41:50.386Z,94.50
2022-08-17T06:43:31.599Z,94.40
2022-08-17T06:44:47.598Z,94.30
2022-08-17T06:46:06.719Z,94.20
2022-08-17T06:47:30.084Z,94.10
2022-08-17T06:48:48.915Z,94.20
2022-08-17T06:50:08.141Z,94.20
2022-08-17T06:51:17.079Z,94.30
2022-08-17T06:52:42.315Z,94.30
2022-08-17T06:53:59.569Z,94.30
2022-08-17T06:55:07.097Z,94.30
2022-08-17T06:56:13.671Z,94.20
2022-08-17T06:57:15.426Z,94.10
2022-08-17T06:58:22.775Z,94.00
2022-08-17T06:59:54.263Z,94.00
2022-08-17T07:00:59.085Z,94.10
2022-08-17T07:02:05.590Z,94.10
2022-08-17T07:03:19.621Z,94.00
2022-08-17T07:04:27.019Z,93.90
2022-08-17T07:05:48.093Z,93.90
2022-08-17T07:06:59.772Z,93.80
2022-08-17T07:08:09.261Z,93.70
2022-08-17T07:09:22.560Z,93.60
2022-08-17T07:10:26.329Z,93.60
2022-08-17T07:11:50.474Z,93.60
2022-08-17T07:13:00.900Z,93.50
2022-08-17T07:14:27.141Z,93.50
2022-08-17T07:15:42.369Z,93.50
2022-08-17T07:16:51.347Z,93.60
2022-08-17T07:17:53.292Z,93.70
2022-08-17T07:18:57.278Z,93.70
2022-08-17T07:20:08.307Z,93.70
2022-08-17T07:21:39.445Z,93.80
2022-08-17T07:23:07.419Z,93.70
2022-08-17T07:24:30.050Z,93.60
2022-08-17T07:25:32.649Z,93.60
2022-08-17T07:26:34.517Z,93.60
2022-08-17T07:27:42.958Z,93.60
2022-08-17T07:28:45.409Z,93.60
2022-08-17T07:29:56.658Z,93.50
2022-08-17T07:30:58.535Z,93.50
2022-08-17T07:32:00.418Z,94.00
2022-08-17T07:33:18.436Z,93.50
2022-08-17T07:34:20.237Z,93.40
2022-08-17T07:35:44.308Z,93.40
2022-08-17T07:36:46.431Z,93.40
2022-08-17T07:37:54.059Z,93.40
2022-08-17T07:38:58.120Z,93.40
2022-08-17T07:40:15.939Z,93.50
2022-08-17T07:41:20.774Z,93.50
2022-08-17T07:42:22.681Z,93.40
2022-08-17T07:43:39.213Z,93.30
2022-08-17T07:44:54.910Z,93.30
2022-08-17T07:46:30.467Z,93.30
2022-08-17T07:47:50.989Z,93.80
2022-08-17T07:48:57.084Z,93.30
2022-08-17T07:49:58.947Z,93.10
2022-08-17T07:51:00.753Z,93.00
2022-08-17T07:52:47.682Z,93.00
2022-08-17T07:53:32.256Z,93.10
2022-08-17T07:54:37.083Z,93.20
2022-08-17T07:55:41.958Z,93.20
2022-08-17T07:56:53.554Z,93.20
2022-08-17T07:57:59.200Z,93.20
2022-08-17T07:59:11.099Z,93.10
2022-08-17T08:00:19.434Z,93.10
2022-08-17T08:01:39.502Z,93.10
2022-08-17T08:02:47.365Z,93.20
2022-08-17T08:03:52.759Z,93.10
2022-08-17T08:05:49.399Z,93.00
2022-08-17T08:06:54.712Z,93.00
2022-08-17T08:08:03.379Z,93.00
2022-08-17T08:09:06.317Z,92.90
2022-08-17T08:10:35.558Z,93.10
2022-08-17T08:11:40.185Z,93.10
2022-08-17T08:13:00.740Z,93.20
2022-08-17T08:14:43.593Z,93.20
2022-08-17T08:15:53.521Z,93.10
2022-08-17T08:17:01.282Z,93.30
2022-08-17T08:18:19.379Z,93.30
2022-08-17T08:19:41.833Z,93.20
2022-08-17T08:21:19.269Z,93.20
2022-08-17T08:22:35.019Z,93.10
2022-08-17T08:23:37.045Z,92.90
2022-08-17T08:25:12.370Z,92.70
2022-08-17T08:27:01.569Z,92.70
2022-08-17T08:28:15.284Z,92.50
2022-08-17T08:29:38.139Z,92.50
2022-08-17T08:30:47.088Z,92.50
2022-08-17T08:32:19.116Z,93.00
2022-08-17T08:33:36.472Z,92.30
2022-08-17T08:35:06.887Z,92.30
2022-08-17T08:37:12.498Z,92.20
2022-08-17T08:38:07.526Z,92.10
2022-08-17T08:39:20.533Z,92.00
2022-08-17T08:40:40.910Z,92.00
2022-08-17T08:41:54.814Z,92.10
2022-08-17T08:43:30.066Z,92.10
2022-08-17T08:44:59.796Z,92.00
2022-08-17T08:46:12.318Z,92.00
2022-08-17T08:47:55.412Z,92.00
2022-08-17T08:50:02.653Z,91.70
2022-08-17T08:51:21.459Z,91.30
2022-08-17T08:52:39.639Z,91.30
2022-08-17T08:53:58.821Z,91.30
2022-08-17T08:55:10.755Z,91.00
2022-08-17T08:57:21.490Z,91.10
2022-08-17T08:58:51.698Z,91.10
2022-08-17T09:00:20.092Z,91.10
2022-08-17T09:01:32.868Z,91.00
2022-08-17T09:03:07.507Z,90.70
2022-08-17T09:04:25.157Z,90.60
2022-08-17T09:06:02.943Z,90.50
2022-08-17T09:07:04.717Z,90.40
2022-08-17T09:08:31.030Z,90.40
2022-08-17T09:09:50.488Z,89.50
2022-08-17T09:11:03.024Z,90.10
2022-08-17T09:12:14.089Z,90.00
2022-08-17T09:13:41.040Z,90.00
2022-08-17T09:14:59.672Z,89.90
2022-08-17T09:16:20.568Z,89.60
2022-08-17T09:17:36.394Z,88.10
2022-08-17T09:19:02.816Z,88.20
2022-08-17T09:20:28.006Z,87.90
2022-08-17T09:21:54.441Z,88.60
2022-08-17T09:23:09.258Z,88.10
2022-08-17T09:24:35.666Z,88.30
2022-08-17T09:25:49.964Z,88.10
2022-08-17T09:27:14.289Z,88.10
2022-08-17T09:28:24.109Z,87.40
2022-08-17T09:29:29.491Z,86.70
2022-08-17T09:30:40.766Z,87.70
2022-08-17T09:31:58.757Z,87.10
2022-08-17T09:33:04.957Z,87.80
2022-08-17T09:34:14.218Z,86.90
2022-08-17T09:35:25.048Z,86.30
2022-08-17T09:36:42.633Z,86.70
2022-08-17T09:37:59.464Z,87.70
2022-08-17T09:39:49.050Z,87.70
2022-08-17T09:41:13.386Z,88.30
2022-08-17T09:42:23.822Z,90.10
2022-08-17T09:43:43.890Z,90.80
2022-08-17T09:45:16.246Z,91.40
2022-08-17T09:46:41.017Z,91.80
2022-08-17T09:47:50.168Z,91.90
2022-08-17T09:49:27.676Z,91.90
2022-08-17T09:51:03.287Z,92.00
2022-08-17T09:52:25.394Z,92.40
2022-08-17T09:53:31.641Z,93.00
2022-08-17T09:54:39.851Z,93.30
2022-08-17T09:55:46.287Z,93.60
2022-08-17T09:57:28.713Z,93.40
2022-08-17T09:58:40.705Z,93.10
2022-08-17T10:00:13.731Z,92.90
2022-08-17T10:01:31.365Z,92.40
2022-08-17T10:03:00.783Z,91.90
2022-08-17T10:04:02.604Z,91.90
2022-08-17T10:05:21.702Z,91.60
2022-08-17T10:06:30.748Z,91.50
2022-08-17T10:08:03.971Z,91.40
2022-08-17T10:09:18.593Z,91.40
2022-08-17T10:10:42.685Z,91.60
2022-08-17T10:12:20.063Z,91.50
2022-08-17T10:13:33.807Z,91.30
2022-08-17T10:14:43.803Z,91.40
2022-08-17T10:16:00.148Z,91.70
2022-08-17T10:17:27.945Z,91.50
2022-08-17T10:18:47.680Z,91.60
2022-08-17T10:19:55.250Z,91.90
2022-08-17T10:21:30.497Z,91.90
2022-08-17T10:23:13.405Z,91.80
2022-08-17T10:25:21.682Z,91.60
2022-08-17T10:26:14.860Z,91.60
2022-08-17T10:27:20.870Z,92.10
2022-08-17T10:28:29.728Z,92.50
2022-08-17T10:29:48.626Z,92.20
2022-08-17T10:31:16.634Z,92.00
2022-08-17T10:32:33.058Z,92.30
2022-08-17T10:33:59.162Z,92.60
2022-08-17T10:35:12.407Z,92.30
2022-08-17T10:36:26.585Z,92.00
2022-08-17T10:37:31.042Z,90.80
2022-08-17T10:38:37.641Z,91.20
2022-08-17T10:40:19.084Z,91.00
2022-08-17T10:41:40.707Z,91.00
2022-08-17T10:42:56.795Z,90.70
2022-08-17T10:44:40.687Z,90.80
2022-08-17T10:46:24.433Z,90.90
2022-08-17T10:47:19.763Z,91.20
2022-08-17T10:48:27.085Z,91.20
2022-08-17T10:49:33.061Z,90.90
2022-08-17T10:50:48.269Z,91.20
2022-08-17T10:51:55.467Z,90.80
2022-08-17T10:52:57.330Z,90.90
2022-08-17T10:54:01.387Z,91.00
2022-08-17T10:55:06.444Z,90.70
2022-08-17T10:56:14.066Z,90.80
2022-08-17T10:57:33.976Z,90.70
2022-08-17T10:58:49.367Z,90.80
2022-08-17T10:59:54.501Z,90.80
2022-08-17T11:00:59.039Z,90.70
2022-08-17T11:02:26.206Z,90.40
2022-08-17T11:03:28.595Z,90.60
2022-08-17T11:04:48.253Z,90.60
2022-08-17T11:05:59.787Z,90.70
2022-08-17T11:07:12.746Z,91.10
2022-08-17T11:08:32.823Z,91.30
2022-08-17T11:10:05.898Z,90.90
2022-08-17T11:11:35.967Z,90.80
2022-08-17T11:12:54.572Z,91.30
2022-08-17T11:14:13.966Z,91.50
2022-08-17T11:15:31.482Z,91.60
2022-08-17T11:16:58.586Z,91.70
2022-08-17T11:18:29.758Z,91.80
2022-08-17T11:19:34.156Z,91.90
2022-08-17T11:21:07.153Z,92.10
2022-08-17T11:22:31.321Z,92.10
2022-08-17T11:23:55.276Z,92.20
2022-08-17T11:25:20.260Z,92.20
2022-08-17T11:26:30.798Z,92.20
2022-08-17T11:27:35.339Z,92.30
2022-08-17T11:28:52.493Z,92.50
2022-08-17T11:30:05.407Z,92.60
2022-08-17T11:31:09.994Z,92.50
2022-08-17T11:32:31.138Z,92.40
2022-08-17T11:33:33.390Z,92.20
2022-08-17T11:34:41.803Z,92.20
2022-08-17T11:35:51.261Z,92.40
2022-08-17T11:37:23.759Z,92.60
2022-08-17T11:38:43.889Z,92.80
2022-08-17T11:40:06.617Z,93.20
2022-08-17T11:41:14.177Z,93.30
2022-08-17T11:42:55.052Z,93.40
2022-08-17T11:44:06.168Z,93.40
2022-08-17T11:45:44.783Z,93.40
2022-08-17T11:47:36.590Z,93.40
2022-08-17T11:49:08.428Z,93.60
2022-08-17T11:50:40.140Z,93.80
2022-08-17T11:52:05.250Z,94.00
2022-08-17T11:53:27.695Z,94.20
2022-08-17T11:54:48.994Z,94.50
2022-08-17T11:55:53.400Z,94.50
2022-08-17T11:56:56.748Z,94.80
2022-08-17T11:58:05.620Z,94.90
2022-08-17T11:59:36.492Z,95.00
2022-08-17T12:00:47.231Z,94.90
2022-08-17T12:01:57.254Z,95.10
2022-08-17T12:03:22.917Z,95.20
2022-08-17T12:04:29.261Z,95.00
2022-08-17T12:05:32.890Z,95.30
2022-08-17T12:06:50.268Z,95.50
2022-08-17T12:08:04.360Z,95.60
2022-08-17T12:09:16.109Z,95.30
2022-08-17T12:10:31.770Z,95.50
2022-08-17T12:12:01.623Z,95.60
2022-08-17T12:13:15.711Z,95.80
2022-08-17T12:14:40.123Z,95.40
2022-08-17T12:15:52.757Z,95.30
2022-08-17T12:17:02.012Z,95.70
2022-08-17T12:18:04.031Z,95.60
2022-08-17T12:19:16.105Z,95.70
2022-08-17T12:20:43.024Z,95.80
2022-08-17T12:21:54.817Z,95.80
2022-08-17T12:23:22.945Z,95.70
2022-08-17T12:24:31.457Z,95.70
2022-08-17T12:25:59.553Z,95.90
2022-08-17T12:27:04.445Z,95.90
2022-08-17T12:28:23.611Z,95.90
2022-08-17T12:29:38.306Z,95.80
2022-08-17T12:30:48.461Z,96.00
2022-08-17T12:31:54.702Z,96.20
2022-08-17T12:32:57.027Z,95.80
2022-08-17T12:34:00.479Z,96.00
2022-08-17T12:35:04.576Z,95.70
2022-08-17T12:36:08.823Z,95.50
2022-08-17T12:37:26.084Z,95.50
2022-08-17T12:38:33.332Z,95.30
2022-08-17T12:39:35.622Z,95.60
2022-08-17T12:40:38.262Z,96.20
2022-08-17T12:41:45.041Z,96.40
2022-08-17T12:43:20.585Z,96.60
2022-08-17T12:44:50.256Z,96.40
2022-08-17T12:45:59.418Z,96.30
2022-08-17T12:47:22.302Z,96.60
2022-08-17T12:48:28.338Z,96.50
2022-08-17T12:49:37.371Z,96.30
2022-08-17T12:50:44.578Z,96.00
2022-08-17T12:51:47.917Z,96.10
2022-08-17T12:52:50.736Z,96.50
2022-08-17T12:53:55.663Z,96.50
2022-08-17T12:55:01.759Z,96.60
2022-08-17T12:56:12.022Z,96.60
2022-08-17T12:57:27.607Z,96.60
2022-08-17T12:58:32.664Z,96.40
2022-08-17T12:59:39.784Z,97.10
2022-08-17T13:00:49.751Z,96.70
2022-08-17T13:01:52.021Z,96.90
2022-08-17T13:03:17.007Z,96.90
2022-08-17T13:04:19.617Z,96.60
2022-08-17T13:05:29.689Z,96.40
2022-08-17T13:06:34.937Z,96.50
2022-08-17T13:07:46.504Z,96.60
2022-08-17T13:08:48.972Z,96.60
2022-08-17T13:09:51.661Z,96.60
2022-08-17T13:10:59.377Z,96.80
2022-08-17T13:12:01.223Z,96.70
2022-08-17T13:13:17.759Z,96.80
2022-08-17T13:14:21.048Z,96.90
2022-08-17T13:15:32.495Z,97.10
2022-08-17T13:16:34.891Z,97.10
2022-08-17T13:17:36.894Z,97.10
2022-08-17T13:18:46.204Z,97.00
2022-08-17T13:19:50.639Z,97.10
2022-08-17T13:20:54.279Z,97.10
2022-08-17T13:22:01.591Z,97.20
2022-08-17T13:23:12.027Z,97.20
2022-08-17T13:24:19.299Z,97.30
2022-08-17T13:25:21.268Z,97.30
2022-08-17T13:26:29.491Z,97.30
2022-08-17T13:27:32.838Z,97.30
2022-08-17T13:28:37.568Z,97.20
2022-08-17T13:29:44.482Z,96.90
2022-08-17T13:30:46.386Z,96.80
2022-08-17T13:31:52.716Z,97.00
2022-08-17T13:32:59.970Z,97.00
2022-08-17T13:34:26.705Z,96.90
2022-08-17T13:35:39.933Z,96.90
2022-08-17T13:36:43.725Z,97.10
2022-08-17T13:37:58.669Z,97.20
2022-08-17T13:39:15.015Z,97.20
2022-08-17T13:40:19.659Z,97.20
2022-08-17T13:41:34.694Z,97.40
2022-08-17T13:42:51.556Z,97.50
2022-08-17T13:43:55.029Z,97.70
2022-08-17T13:44:57.740Z,97.60
2022-08-17T13:46:20.434Z,97.70
2022-08-17T13:47:22.287Z,97.50
2022-08-17T13:48:28.868Z,97.50
2022-08-17T13:49:41.945Z,97.60
2022-08-17T13:50:57.014Z,97.70
2022-08-17T13:51:58.873Z,97.80
2022-08-17T13:53:16.765Z,97.90
2022-08-17T13:54:35.024Z,97.90
2022-08-17T13:55:37.007Z,97.90
2022-08-17T13:57:01.066Z,98.00
2022-08-17T13:58:07.285Z,97.80
2022-08-17T13:59:16.474Z,97.90
2022-08-17T14:00:31.849Z,98.00
2022-08-17T14:01:38.331Z,97.90
2022-08-17T14:02:40.296Z,97.90
2022-08-17T14:03:42.248Z,98.00
2022-08-17T14:04:48.639Z,98.00
2022-08-17T14:05:51.870Z,98.00
2022-08-17T14:07:22.386Z,98.00
2022-08-17T14:08:26.537Z,97.80
2022-08-17T14:09:59.718Z,97.90
2022-08-17T14:11:02.364Z,98.10
2022-08-17T14:12:06.858Z,98.10
2022-08-17T14:13:08.661Z,98.00
2022-08-17T14:14:11.868Z,98.10
2022-08-17T14:15:17.830Z,98.10
2022-08-17T14:16:20.667Z,97.90
2022-08-17T14:17:23.723Z,97.90
2022-08-17T14:18:49.835Z,98.00
2022-08-17T14:19:48.249Z,98.10
2022-08-17T14:20:50.158Z,98.20
2022-08-17T14:21:58.914Z,98.00
2022-08-17T14:23:01.088Z,98.00
2022-08-17T14:24:03.256Z,97.90
2022-08-17T14:25:10.535Z,97.90
2022-08-17T14:26:12.812Z,97.80
2022-08-17T14:27:18.066Z,97.60
2022-08-17T14:28:19.965Z,97.70
2022-08-17T14:29:24.576Z,98.10
2022-08-17T14:30:29.794Z,97.60
2022-08-17T14:31:36.903Z,97.70
2022-08-17T14:32:41.563Z,97.70
2022-08-17T14:33:43.402Z,97.60
2022-08-17T14:34:49.459Z,97.60
2022-08-17T14:35:53.661Z,97.70
2022-08-17T14:36:56.982Z,97.60
2022-08-17T14:37:58.849Z,97.60
2022-08-17T14:39:00.900Z,97.50
2022-08-17T14:40:10.010Z,97.50
2022-08-17T14:41:12.024Z,97.30
2022-08-17T14:42:15.659Z,97.20
2022-08-17T14:43:18.504Z,97.10
2022-08-17T14:44:20.385Z,97.20
2022-08-17T14:45:31.838Z,97.20
2022-08-17T14:46:35.053Z,97.20
2022-08-17T14:47:39.434Z,97.20
2022-08-17T14:48:41.427Z,97.10
2022-08-17T14:49:43.876Z,96.80
2022-08-17T14:50:49.613Z,96.60
2022-08-17T14:51:52.854Z,97.10
2022-08-17T14:52:56.292Z,97.10
2022-08-17T14:54:00.101Z,97.30
2022-08-17T14:55:02.411Z,97.40
2022-08-17T14:56:04.599Z,97.40
2022-08-17T14:57:24.730Z,97.20
2022-08-17T14:58:29.758Z,97.10
2022-08-17T14:59:31.928Z,97.20
2022-08-17T15:00:33.996Z,97.00
2022-08-17T15:01:36.888Z,97.00
2022-08-17T15:02:53.688Z,97.00
2022-08-17T15:03:55.668Z,96.70
2022-08-17T15:05:05.435Z,96.60
2022-08-17T15:06:08.798Z,96.50
2022-08-17T15:07:11.530Z,96.40
2022-08-17T15:08:13.933Z,96.30
2022-08-17T15:09:16.815Z,96.00
2022-08-17T15:10:20.891Z,95.80
2022-08-17T15:11:22.866Z,95.60
2022-08-17T15:12:28.628Z,95.60
2022-08-17T15:13:33.969Z,95.90
2022-08-17T15:14:36.462Z,95.70
2022-08-17T15:15:39.257Z,95.70